sensor_id;sensor_type;location;lat;lon;timestamp;pressure;altitude;pressure_sealevel;temperature;humidity
72414;BME280;60995;52.154;4.498;2023-04-15T00:01:01;100814.75;;;11.09;53.85
72414;BME280;60995;52.154;4.498;2023-04-15T00:03:20;100824.06;;;11.07;54.13
72414;BME280;60995;52.154;4.498;2023-04-15T00:05:37;100810.03;;;11.12;54.13
72414;BME280;60995;52.154;4.498;2023-04-15T00:07:53;100819.03;;;10.92;54.71
72414;BME280;60995;52.154;4.498;2023-04-15T00:10:10;100822.19;;;10.98;54.62
72414;BME280;60995;52.154;4.498;2023-04-15T00:12:27;100820.75;;;11.03;54.19
72414;BME280;60995;52.154;4.498;2023-04-15T00:14:43;100823.47;;;11.03;53.63
72414;BME280;60995;52.154;4.498;2023-04-15T00:17:00;100832.72;;;10.91;54.72
72414;BME280;60995;52.154;4.498;2023-04-15T00:19:16;100824.81;;;10.68;54.89
72414;BME280;60995;52.154;4.498;2023-04-15T00:21:32;100825.84;;;10.87;54.41
72414;BME280;60995;52.154;4.498;2023-04-15T00:23:48;100830.69;;;10.73;54.94
72414;BME280;60995;52.154;4.498;2023-04-15T00:26:07;100821.97;;;10.70;55.29
72414;BME280;60995;52.154;4.498;2023-04-15T00:28:24;100820.22;;;10.59;55.44
72414;BME280;60995;52.154;4.498;2023-04-15T00:30:41;100823.63;;;10.51;55.36
72414;BME280;60995;52.154;4.498;2023-04-15T00:32:57;100824.31;;;10.43;55.29
72414;BME280;60995;52.154;4.498;2023-04-15T00:35:14;100830.81;;;10.62;54.79
72414;BME280;60995;52.154;4.498;2023-04-15T00:37:30;100832.31;;;10.45;55.29
72414;BME280;60995;52.154;4.498;2023-04-15T00:39:46;100837.44;;;10.38;55.63
72414;BME280;60995;52.154;4.498;2023-04-15T00:42:03;100837.91;;;10.22;55.85
72414;BME280;60995;52.154;4.498;2023-04-15T00:44:20;100839.66;;;10.33;55.58
72414;BME280;60995;52.154;4.498;2023-04-15T00:46:38;100833.63;;;10.30;55.83
72414;BME280;60995;52.154;4.498;2023-04-15T00:48:55;100834.31;;;10.22;56.13
72414;BME280;60995;52.154;4.498;2023-04-15T00:51:12;100833.28;;;10.13;55.55
72414;BME280;60995;52.154;4.498;2023-04-15T00:53:29;100839.03;;;10.20;55.89
72414;BME280;60995;52.154;4.498;2023-04-15T00:55:45;100833.41;;;10.12;55.95
72414;BME280;60995;52.154;4.498;2023-04-15T00:58:02;100836.56;;;10.17;55.81
72414;BME280;60995;52.154;4.498;2023-04-15T01:00:19;100826.09;;;10.02;56.16
72414;BME280;60995;52.154;4.498;2023-04-15T01:02:35;100829.81;;;10.01;55.98
72414;BME280;60995;52.154;4.498;2023-04-15T01:04:52;100833.53;;;10.10;56.01
72414;BME280;60995;52.154;4.498;2023-04-15T01:07:08;100840.38;;;10.04;56.18
72414;BME280;60995;52.154;4.498;2023-04-15T01:09:24;100838.66;;;10.03;56.30
72414;BME280;60995;52.154;4.498;2023-04-15T01:11:42;100834.63;;;9.98;56.24
72414;BME280;60995;52.154;4.498;2023-04-15T01:13:59;100851.50;;;10.01;56.12
72414;BME280;60995;52.154;4.498;2023-04-15T01:16:17;100841.19;;;9.95;56.38
72414;BME280;60995;52.154;4.498;2023-04-15T01:18:35;100838.94;;;10.00;56.70
72414;BME280;60995;52.154;4.498;2023-04-15T01:20:52;100843.97;;;9.84;56.86
72414;BME280;60995;52.154;4.498;2023-04-15T01:23:09;100840.25;;;9.85;56.96
72414;BME280;60995;52.154;4.498;2023-04-15T01:25:32;100841.06;;;9.75;57.09
72414;BME280;60995;52.154;4.498;2023-04-15T01:27:49;100836.16;;;9.69;57.55
72414;BME280;60995;52.154;4.498;2023-04-15T01:30:07;100845.88;;;9.72;57.50
72414;BME280;60995;52.154;4.498;2023-04-15T01:32:25;100835.41;;;9.67;57.70
72414;BME280;60995;52.154;4.498;2023-04-15T01:34:41;100841.56;;;9.69;57.76
72414;BME280;60995;52.154;4.498;2023-04-15T01:36:58;100842.03;;;9.74;57.77
72414;BME280;60995;52.154;4.498;2023-04-15T01:39:14;100833.91;;;9.74;57.58
72414;BME280;60995;52.154;4.498;2023-04-15T01:41:30;100835.63;;;9.75;57.70
72414;BME280;60995;52.154;4.498;2023-04-15T01:43:47;100831.94;;;9.76;57.97
72414;BME280;60995;52.154;4.498;2023-04-15T01:46:04;100835.88;;;9.72;57.99
72414;BME280;60995;52.154;4.498;2023-04-15T01:48:21;100845.13;;;9.70;58.24
72414;BME280;60995;52.154;4.498;2023-04-15T01:50:38;100843.78;;;9.54;58.59
72414;BME280;60995;52.154;4.498;2023-04-15T01:52:54;100840.84;;;9.67;58.37
72414;BME280;60995;52.154;4.498;2023-04-15T01:55:11;100845.59;;;9.54;58.58
72414;BME280;60995;52.154;4.498;2023-04-15T01:57:27;100842.69;;;9.67;58.61
72414;BME280;60995;52.154;4.498;2023-04-15T01:59:43;100852.69;;;9.66;58.61
72414;BME280;60995;52.154;4.498;2023-04-15T02:01:59;100848.81;;;9.48;59.22
72414;BME280;60995;52.154;4.498;2023-04-15T02:04:16;100848.06;;;9.57;59.10
72414;BME280;60995;52.154;4.498;2023-04-15T02:06:32;100851.44;;;9.49;59.51
72414;BME280;60995;52.154;4.498;2023-04-15T02:08:49;100844.94;;;9.40;59.60
72414;BME280;60995;52.154;4.498;2023-04-15T02:11:05;100851.47;;;9.59;59.45
72414;BME280;60995;52.154;4.498;2023-04-15T02:13:21;100848.31;;;9.54;59.30
72414;BME280;60995;52.154;4.498;2023-04-15T02:15:38;100847.59;;;9.52;59.64
72414;BME280;60995;52.154;4.498;2023-04-15T02:17:54;100855.19;;;9.58;59.53
72414;BME280;60995;52.154;4.498;2023-04-15T02:20:10;100854.50;;;9.44;60.00
72414;BME280;60995;52.154;4.498;2023-04-15T02:22:27;100854.00;;;9.51;59.69
72414;BME280;60995;52.154;4.498;2023-04-15T02:24:45;100863.38;;;9.47;60.08
72414;BME280;60995;52.154;4.498;2023-04-15T02:27:01;100872.44;;;9.57;59.73
72414;BME280;60995;52.154;4.498;2023-04-15T02:29:18;100864.88;;;9.60;59.68
72414;BME280;60995;52.154;4.498;2023-04-15T02:31:34;100876.84;;;9.58;59.63
72414;BME280;60995;52.154;4.498;2023-04-15T02:33:55;100872.22;;;9.49;60.41
72414;BME280;60995;52.154;4.498;2023-04-15T02:36:11;100869.50;;;9.49;60.43
72414;BME280;60995;52.154;4.498;2023-04-15T02:38:27;100882.09;;;9.38;60.88
72414;BME280;60995;52.154;4.498;2023-04-15T02:40:44;100878.38;;;9.51;61.13
72414;BME280;60995;52.154;4.498;2023-04-15T02:43:01;100879.66;;;9.35;61.39
72414;BME280;60995;52.154;4.498;2023-04-15T02:45:17;100882.38;;;9.35;62.24
72414;BME280;60995;52.154;4.498;2023-04-15T02:47:35;100885.06;;;9.35;62.05
72414;BME280;60995;52.154;4.498;2023-04-15T02:49:52;100885.81;;;9.37;62.25
72414;BME280;60995;52.154;4.498;2023-04-15T02:52:08;100888.28;;;9.29;62.42
72414;BME280;60995;52.154;4.498;2023-04-15T02:54:25;100894.75;;;9.17;63.00
72414;BME280;60995;52.154;4.498;2023-04-15T02:56:43;100901.97;;;9.16;62.93
72414;BME280;60995;52.154;4.498;2023-04-15T02:58:59;100898.94;;;9.09;63.30
72414;BME280;60995;52.154;4.498;2023-04-15T03:01:16;100903.63;;;8.96;63.81
72414;BME280;60995;52.154;4.498;2023-04-15T03:03:32;100902.88;;;8.94;63.95
72414;BME280;60995;52.154;4.498;2023-04-15T03:05:49;100904.59;;;9.06;63.76
72414;BME280;60995;52.154;4.498;2023-04-15T03:08:05;100912.03;;;8.82;64.09
72414;BME280;60995;52.154;4.498;2023-04-15T03:10:22;100901.81;;;8.85;64.26
72414;BME280;60995;52.154;4.498;2023-04-15T03:12:38;100901.19;;;8.82;64.11
72414;BME280;60995;52.154;4.498;2023-04-15T03:14:55;100900.44;;;8.80;64.03
72414;BME280;60995;52.154;4.498;2023-04-15T03:17:11;100906.84;;;8.78;64.47
72414;BME280;60995;52.154;4.498;2023-04-15T03:19:27;100901.19;;;8.82;64.09
72414;BME280;60995;52.154;4.498;2023-04-15T03:21:44;100910.28;;;8.69;64.46
72414;BME280;60995;52.154;4.498;2023-04-15T03:24:00;100913.72;;;8.94;63.94
72414;BME280;60995;52.154;4.498;2023-04-15T03:26:26;100918.66;;;8.66;64.88
72414;BME280;60995;52.154;4.498;2023-04-15T03:28:45;100930.47;;;8.76;64.70
72414;BME280;60995;52.154;4.498;2023-04-15T03:31:02;100917.91;;;8.64;64.93
72414;BME280;60995;52.154;4.498;2023-04-15T03:33:18;100921.88;;;8.71;65.65
72414;BME280;60995;52.154;4.498;2023-04-15T03:35:34;100922.84;;;8.59;65.52
72414;BME280;60995;52.154;4.498;2023-04-15T03:37:50;100924.06;;;8.66;65.56
72414;BME280;60995;52.154;4.498;2023-04-15T03:40:07;100929.84;;;8.73;65.40
72414;BME280;60995;52.154;4.498;2023-04-15T03:42:24;100921.13;;;8.81;65.41
72414;BME280;60995;52.154;4.498;2023-04-15T03:44:40;100925.69;;;8.80;65.57
72414;BME280;60995;52.154;4.498;2023-04-15T03:46:57;100930.09;;;8.70;65.74
72414;BME280;60995;52.154;4.498;2023-04-15T03:49:13;100936.38;;;8.70;65.73
72414;BME280;60995;52.154;4.498;2023-04-15T03:51:29;100944.97;;;8.75;65.99
72414;BME280;60995;52.154;4.498;2023-04-15T03:53:46;100935.63;;;8.80;65.66
72414;BME280;60995;52.154;4.498;2023-04-15T03:56:02;100942.13;;;8.77;66.05
72414;BME280;60995;52.154;4.498;2023-04-15T03:58:19;100950.38;;;8.75;66.06
72414;BME280;60995;52.154;4.498;2023-04-15T04:00:35;100942.25;;;8.64;66.55
72414;BME280;60995;52.154;4.498;2023-04-15T04:02:51;100949.53;;;8.75;66.15
72414;BME280;60995;52.154;4.498;2023-04-15T04:05:08;100947.44;;;8.67;66.67
72414;BME280;60995;52.154;4.498;2023-04-15T04:07:24;100957.75;;;8.73;66.49
72414;BME280;60995;52.154;4.498;2023-04-15T04:09:41;100957.38;;;8.67;66.76
72414;BME280;60995;52.154;4.498;2023-04-15T04:11:57;100963.41;;;8.70;66.68
72414;BME280;60995;52.154;4.498;2023-04-15T04:14:13;100969.59;;;8.72;66.51
72414;BME280;60995;52.154;4.498;2023-04-15T04:16:30;100979.66;;;8.70;66.63
72414;BME280;60995;52.154;4.498;2023-04-15T04:18:46;100970.28;;;8.74;66.86
72414;BME280;60995;52.154;4.498;2023-04-15T04:21:02;100980.78;;;8.79;66.66
72414;BME280;60995;52.154;4.498;2023-04-15T04:23:18;100984.44;;;8.78;66.67
72414;BME280;60995;52.154;4.498;2023-04-15T04:25:35;100978.53;;;8.73;66.92
72414;BME280;60995;52.154;4.498;2023-04-15T04:27:51;100982.38;;;8.82;66.98
72414;BME280;60995;52.154;4.498;2023-04-15T04:30:08;100984.31;;;8.80;66.81
72414;BME280;60995;52.154;4.498;2023-04-15T04:32:24;100992.69;;;8.76;67.29
72414;BME280;60995;52.154;4.498;2023-04-15T04:34:40;100993.56;;;8.88;66.86
72414;BME280;60995;52.154;4.498;2023-04-15T04:36:57;100997.63;;;8.83;67.39
72414;BME280;60995;52.154;4.498;2023-04-15T04:39:13;100991.94;;;8.74;67.69
72414;BME280;60995;52.154;4.498;2023-04-15T04:41:29;101003.75;;;8.73;67.81
72414;BME280;60995;52.154;4.498;2023-04-15T04:43:47;101006.59;;;8.83;67.73
72414;BME280;60995;52.154;4.498;2023-04-15T04:46:03;101001.03;;;8.73;67.82
72414;BME280;60995;52.154;4.498;2023-04-15T04:48:19;101008.69;;;8.68;68.22
72414;BME280;60995;52.154;4.498;2023-04-15T04:50:36;101010.03;;;8.85;67.74
72414;BME280;60995;52.154;4.498;2023-04-15T04:52:52;101015.94;;;8.79;68.34
72414;BME280;60995;52.154;4.498;2023-04-15T04:55:08;101017.53;;;8.70;68.58
72414;BME280;60995;52.154;4.498;2023-04-15T04:57:24;101025.75;;;8.69;68.67
72414;BME280;60995;52.154;4.498;2023-04-15T04:59:41;101025.50;;;8.72;68.55
72414;BME280;60995;52.154;4.498;2023-04-15T05:01:57;101031.78;;;8.84;68.12
72414;BME280;60995;52.154;4.498;2023-04-15T05:04:13;101033.78;;;8.82;68.61
72414;BME280;60995;52.154;4.498;2023-04-15T05:06:30;101045.09;;;8.87;68.29
72414;BME280;60995;52.154;4.498;2023-04-15T05:08:47;101041.28;;;8.89;68.37
72414;BME280;60995;52.154;4.498;2023-04-15T05:11:04;101041.63;;;8.73;68.56
72414;BME280;60995;52.154;4.498;2023-04-15T05:13:20;101047.03;;;8.73;68.58
72414;BME280;60995;52.154;4.498;2023-04-15T05:15:36;101054.69;;;8.91;68.58
72414;BME280;60995;52.154;4.498;2023-04-15T05:17:54;101058.53;;;9.00;68.60
72414;BME280;60995;52.154;4.498;2023-04-15T05:20:11;101062.44;;;9.07;67.83
72414;BME280;60995;52.154;4.498;2023-04-15T05:22:27;101065.75;;;8.99;67.75
72414;BME280;60995;52.154;4.498;2023-04-15T05:24:44;101073.38;;;8.94;68.00
72414;BME280;60995;52.154;4.498;2023-04-15T05:27:00;101075.38;;;8.92;68.26
72414;BME280;60995;52.154;4.498;2023-04-15T05:29:16;101083.09;;;8.97;68.67
72414;BME280;60995;52.154;4.498;2023-04-15T05:31:33;101091.25;;;9.08;67.94
72414;BME280;60995;52.154;4.498;2023-04-15T05:33:49;101076.84;;;9.19;67.94
72414;BME280;60995;52.154;4.498;2023-04-15T05:36:05;101091.88;;;9.12;68.17
72414;BME280;60995;52.154;4.498;2023-04-15T05:38:22;101104.69;;;9.32;67.74
72414;BME280;60995;52.154;4.498;2023-04-15T05:40:38;101106.91;;;9.27;67.85
72414;BME280;60995;52.154;4.498;2023-04-15T05:42:54;101115.50;;;9.32;67.81
72414;BME280;60995;52.154;4.498;2023-04-15T05:45:11;101110.81;;;9.57;67.34
72414;BME280;60995;52.154;4.498;2023-04-15T05:47:28;101114.38;;;9.69;66.64
72414;BME280;60995;52.154;4.498;2023-04-15T05:49:44;101118.44;;;9.74;66.90
72414;BME280;60995;52.154;4.498;2023-04-15T05:52:01;101124.34;;;9.80;66.66
72414;BME280;60995;52.154;4.498;2023-04-15T05:54:17;101128.94;;;10.12;66.06
72414;BME280;60995;52.154;4.498;2023-04-15T05:56:34;101136.09;;;10.13;66.35
72414;BME280;60995;52.154;4.498;2023-04-15T05:58:50;101139.03;;;10.21;65.63
72414;BME280;60995;52.154;4.498;2023-04-15T06:01:06;101138.19;;;10.53;65.79
72414;BME280;60995;52.154;4.498;2023-04-15T06:03:23;101149.50;;;11.73;61.87
72414;BME280;60995;52.154;4.498;2023-04-15T06:05:40;101143.22;;;12.92;56.36
72414;BME280;60995;52.154;4.498;2023-04-15T06:07:56;101148.63;;;14.61;52.79
72414;BME280;60995;52.154;4.498;2023-04-15T06:10:12;101149.84;;;16.74;47.54
72414;BME280;60995;52.154;4.498;2023-04-15T06:12:28;101160.69;;;17.81;42.90
72414;BME280;60995;52.154;4.498;2023-04-15T06:14:45;101162.13;;;18.94;39.93
72414;BME280;60995;52.154;4.498;2023-04-15T06:17:01;101174.31;;;18.68;41.02
72414;BME280;60995;52.154;4.498;2023-04-15T06:19:17;101174.88;;;19.25;39.07
72414;BME280;60995;52.154;4.498;2023-04-15T06:21:34;101168.75;;;20.86;36.60
72414;BME280;60995;52.154;4.498;2023-04-15T06:23:51;101186.50;;;20.25;36.71
72414;BME280;60995;52.154;4.498;2023-04-15T06:26:08;101186.22;;;19.60;38.45
72414;BME280;60995;52.154;4.498;2023-04-15T06:28:24;101192.16;;;21.75;34.75
72414;BME280;60995;52.154;4.498;2023-04-15T06:30:40;101189.22;;;23.68;31.91
72414;BME280;60995;52.154;4.498;2023-04-15T06:32:57;101197.84;;;22.02;33.58
72414;BME280;60995;52.154;4.498;2023-04-15T06:35:13;101193.84;;;22.67;33.14
72414;BME280;60995;52.154;4.498;2023-04-15T06:37:30;101195.22;;;23.38;31.51
72414;BME280;60995;52.154;4.498;2023-04-15T06:39:47;101193.66;;;23.69;30.85
72414;BME280;60995;52.154;4.498;2023-04-15T06:42:03;101196.47;;;23.22;31.68
72414;BME280;60995;52.154;4.498;2023-04-15T06:44:20;101209.63;;;22.24;32.91
72414;BME280;60995;52.154;4.498;2023-04-15T06:46:36;101203.66;;;22.76;32.82
72414;BME280;60995;52.154;4.498;2023-04-15T06:48:52;101216.56;;;22.07;33.21
72414;BME280;60995;52.154;4.498;2023-04-15T06:51:08;101214.94;;;22.19;33.26
72414;BME280;60995;52.154;4.498;2023-04-15T06:53:25;101215.19;;;21.32;34.63
72414;BME280;60995;52.154;4.498;2023-04-15T06:55:42;101224.41;;;20.75;35.73
72414;BME280;60995;52.154;4.498;2023-04-15T06:57:59;101224.28;;;18.72;39.04
72414;BME280;60995;52.154;4.498;2023-04-15T07:00:15;101228.41;;;18.45;39.58
72414;BME280;60995;52.154;4.498;2023-04-15T07:02:32;101230.34;;;18.36;39.99
72414;BME280;60995;52.154;4.498;2023-04-15T07:04:49;101234.00;;;19.67;38.49
72414;BME280;60995;52.154;4.498;2023-04-15T07:07:05;101244.06;;;18.67;39.27
72414;BME280;60995;52.154;4.498;2023-04-15T07:09:23;101243.38;;;18.34;40.46
72414;BME280;60995;52.154;4.498;2023-04-15T07:11:39;101238.84;;;19.80;37.88
72414;BME280;60995;52.154;4.498;2023-04-15T07:13:57;101244.66;;;21.04;35.07
72414;BME280;60995;52.154;4.498;2023-04-15T07:16:16;101247.75;;;19.29;38.29
72414;BME280;60995;52.154;4.498;2023-04-15T07:18:33;101245.59;;;20.38;36.61
72414;BME280;60995;52.154;4.498;2023-04-15T07:20:49;101245.22;;;20.77;35.31
72414;BME280;60995;52.154;4.498;2023-04-15T07:23:06;101253.13;;;19.99;37.37
72414;BME280;60995;52.154;4.498;2023-04-15T07:25:23;101261.94;;;20.24;36.32
72414;BME280;60995;52.154;4.498;2023-04-15T07:27:39;101268.03;;;20.86;35.63
72414;BME280;60995;52.154;4.498;2023-04-15T07:29:55;101266.41;;;22.20;33.45
72414;BME280;60995;52.154;4.498;2023-04-15T07:32:12;101272.75;;;21.14;34.83
72414;BME280;60995;52.154;4.498;2023-04-15T07:34:28;101271.44;;;22.10;33.92
72414;BME280;60995;52.154;4.498;2023-04-15T07:36:44;101282.34;;;22.67;32.77
72414;BME280;60995;52.154;4.498;2023-04-15T07:39:01;101274.88;;;23.36;31.28
72414;BME280;60995;52.154;4.498;2023-04-15T07:41:18;101291.47;;;23.22;32.32
72414;BME280;60995;52.154;4.498;2023-04-15T07:43:35;101294.00;;;22.55;32.93
72414;BME280;60995;52.154;4.498;2023-04-15T07:45:52;101301.28;;;24.12;30.42
72414;BME280;60995;52.154;4.498;2023-04-15T07:48:08;101300.22;;;25.49;28.95
72414;BME280;60995;52.154;4.498;2023-04-15T07:50:24;101306.28;;;22.11;32.92
72414;BME280;60995;52.154;4.498;2023-04-15T07:52:41;101317.28;;;22.81;31.67
72414;BME280;60995;52.154;4.498;2023-04-15T07:54:58;101319.97;;;22.19;32.86
72414;BME280;60995;52.154;4.498;2023-04-15T07:57:14;101314.53;;;20.89;35.08
72414;BME280;60995;52.154;4.498;2023-04-15T07:59:31;101320.72;;;21.13;34.93
72414;BME280;60995;52.154;4.498;2023-04-15T08:01:48;101324.09;;;20.12;36.66
72414;BME280;60995;52.154;4.498;2023-04-15T08:04:05;101334.50;;;22.00;33.49
72414;BME280;60995;52.154;4.498;2023-04-15T08:06:21;101324.19;;;22.99;31.36
72414;BME280;60995;52.154;4.498;2023-04-15T08:08:37;101338.19;;;22.97;31.67
72414;BME280;60995;52.154;4.498;2023-04-15T08:10:53;101337.84;;;22.23;33.08
72414;BME280;60995;52.154;4.498;2023-04-15T08:13:10;101349.25;;;22.90;31.82
72414;BME280;60995;52.154;4.498;2023-04-15T08:15:27;101353.72;;;24.20;29.87
72414;BME280;60995;52.154;4.498;2023-04-15T08:17:43;101357.53;;;24.19;28.60
72414;BME280;60995;52.154;4.498;2023-04-15T08:19:59;101359.31;;;22.56;31.88
72414;BME280;60995;52.154;4.498;2023-04-15T08:22:16;101356.03;;;25.02;28.43
72414;BME280;60995;52.154;4.498;2023-04-15T08:24:32;101370.34;;;23.80;28.81
72414;BME280;60995;52.154;4.498;2023-04-15T08:26:49;101367.38;;;22.51;30.67
72414;BME280;60995;52.154;4.498;2023-04-15T08:29:05;101370.19;;;21.73;32.16
72414;BME280;60995;52.154;4.498;2023-04-15T08:31:22;101380.75;;;19.45;35.90
72414;BME280;60995;52.154;4.498;2023-04-15T08:33:38;101386.31;;;19.37;36.11
72414;BME280;60995;52.154;4.498;2023-04-15T08:35:54;101380.13;;;20.49;34.46
72414;BME280;60995;52.154;4.498;2023-04-15T08:38:10;101384.09;;;20.02;35.41
72414;BME280;60995;52.154;4.498;2023-04-15T08:40:34;101385.66;;;20.79;33.92
72414;BME280;60995;52.154;4.498;2023-04-15T08:43:00;101394.13;;;20.32;34.89
72414;BME280;60995;52.154;4.498;2023-04-15T08:45:19;101390.94;;;20.06;35.95
72414;BME280;60995;52.154;4.498;2023-04-15T08:47:37;101397.94;;;20.61;34.70
72414;BME280;60995;52.154;4.498;2023-04-15T08:49:56;101401.97;;;22.75;31.30
72414;BME280;60995;52.154;4.498;2023-04-15T08:52:13;101414.06;;;24.05;29.20
72414;BME280;60995;52.154;4.498;2023-04-15T08:54:29;101404.91;;;22.10;31.63
72414;BME280;60995;52.154;4.498;2023-04-15T08:56:47;101410.94;;;21.92;32.50
72414;BME280;60995;52.154;4.498;2023-04-15T08:59:04;101407.38;;;21.77;32.13
72414;BME280;60995;52.154;4.498;2023-04-15T09:01:21;101421.84;;;21.57;33.00
72414;BME280;60995;52.154;4.498;2023-04-15T09:03:38;101421.91;;;21.64;32.54
72414;BME280;60995;52.154;4.498;2023-04-15T09:05:56;101423.84;;;21.85;32.26
72414;BME280;60995;52.154;4.498;2023-04-15T09:08:12;101438.59;;;21.34;32.21
72414;BME280;60995;52.154;4.498;2023-04-15T09:10:29;101447.38;;;20.10;33.98
72414;BME280;60995;52.154;4.498;2023-04-15T09:12:45;101435.34;;;21.30;32.86
72414;BME280;60995;52.154;4.498;2023-04-15T09:15:02;101435.28;;;21.24;32.65
72414;BME280;60995;52.154;4.498;2023-04-15T09:17:19;101439.81;;;23.78;28.97
72414;BME280;60995;52.154;4.498;2023-04-15T09:19:36;101440.72;;;24.19;28.00
72414;BME280;60995;52.154;4.498;2023-04-15T09:21:53;101439.91;;;21.75;31.22
72414;BME280;60995;52.154;4.498;2023-04-15T09:24:14;101444.28;;;20.28;34.75
72414;BME280;60995;52.154;4.498;2023-04-15T09:26:34;101448.28;;;21.30;32.70
72414;BME280;60995;52.154;4.498;2023-04-15T09:28:52;101460.88;;;22.41;30.69
72414;BME280;60995;52.154;4.498;2023-04-15T09:31:09;101454.75;;;22.74;29.72
72414;BME280;60995;52.154;4.498;2023-04-15T09:33:27;101453.78;;;22.60;28.79
72414;BME280;60995;52.154;4.498;2023-04-15T09:36:04;101471.81;;;22.06;30.12
72414;BME280;60995;52.154;4.498;2023-04-15T09:38:20;101483.44;;;21.94;30.22
72414;BME280;60995;52.154;4.498;2023-04-15T09:40:40;101480.56;;;21.29;31.17
72414;BME280;60995;52.154;4.498;2023-04-15T09:42:57;101489.78;;;21.22;31.42
72414;BME280;60995;52.154;4.498;2023-04-15T09:45:13;101483.31;;;22.88;28.73
72414;BME280;60995;52.154;4.498;2023-04-15T09:47:30;101488.97;;;21.94;29.58
72414;BME280;60995;52.154;4.498;2023-04-15T09:49:54;101492.81;;;21.57;31.05
72414;BME280;60995;52.154;4.498;2023-04-15T09:52:13;101493.16;;;20.87;32.68
72414;BME280;60995;52.154;4.498;2023-04-15T09:54:37;101493.50;;;22.30;30.68
72414;BME280;60995;52.154;4.498;2023-04-15T09:56:53;101498.66;;;23.25;28.79
72414;BME280;60995;52.154;4.498;2023-04-15T09:59:09;101492.28;;;22.90;29.32
72414;BME280;60995;52.154;4.498;2023-04-15T10:01:26;101498.78;;;23.10;28.07
72414;BME280;60995;52.154;4.498;2023-04-15T10:03:44;101505.91;;;22.91;27.64
72414;BME280;60995;52.154;4.498;2023-04-15T10:06:01;101514.19;;;21.91;28.60
72414;BME280;60995;52.154;4.498;2023-04-15T10:08:19;101519.47;;;22.79;27.42
72414;BME280;60995;52.154;4.498;2023-04-15T10:10:39;101510.81;;;22.89;28.26
72414;BME280;60995;52.154;4.498;2023-04-15T10:12:56;101510.69;;;21.46;29.52
72414;BME280;60995;52.154;4.498;2023-04-15T10:15:15;101510.47;;;23.06;28.29
72414;BME280;60995;52.154;4.498;2023-04-15T10:17:33;101521.94;;;21.81;29.65
72414;BME280;60995;52.154;4.498;2023-04-15T10:19:53;101519.47;;;22.29;29.80
72414;BME280;60995;52.154;4.498;2023-04-15T10:22:10;101525.44;;;22.83;29.09
72414;BME280;60995;52.154;4.498;2023-04-15T10:24:27;101527.56;;;23.58;28.21
72414;BME280;60995;52.154;4.498;2023-04-15T10:26:45;101523.69;;;22.04;28.83
72414;BME280;60995;52.154;4.498;2023-04-15T10:29:02;101522.75;;;21.75;29.80
72414;BME280;60995;52.154;4.498;2023-04-15T10:31:19;101512.13;;;22.15;28.97
72414;BME280;60995;52.154;4.498;2023-04-15T10:33:37;101530.75;;;22.78;27.96
72414;BME280;60995;52.154;4.498;2023-04-15T10:35:55;101534.19;;;23.15;27.32
72414;BME280;60995;52.154;4.498;2023-04-15T10:38:31;101523.03;;;22.45;28.77
72414;BME280;60995;52.154;4.498;2023-04-15T10:40:49;101532.06;;;22.60;29.29
72414;BME280;60995;52.154;4.498;2023-04-15T10:43:06;101535.09;;;22.37;29.76
72414;BME280;60995;52.154;4.498;2023-04-15T10:45:25;101537.63;;;21.44;31.69
72414;BME280;60995;52.154;4.498;2023-04-15T10:47:55;101538.91;;;21.78;30.95
72414;BME280;60995;52.154;4.498;2023-04-15T10:52:28;101538.97;;;21.18;31.31
72414;BME280;60995;52.154;4.498;2023-04-15T10:54:44;101537.75;;;21.36;30.72
72414;BME280;60995;52.154;4.498;2023-04-15T10:59:20;101545.66;;;21.09;31.07
72414;BME280;60995;52.154;4.498;2023-04-15T11:01:54;101563.16;;;21.16;31.40
72414;BME280;60995;52.154;4.498;2023-04-15T11:04:12;101541.16;;;21.38;31.70
72414;BME280;60995;52.154;4.498;2023-04-15T11:06:43;101540.91;;;21.84;30.71
72414;BME280;60995;52.154;4.498;2023-04-15T11:09:00;101553.44;;;21.35;32.18
72414;BME280;60995;52.154;4.498;2023-04-15T11:11:21;101571.03;;;20.51;33.42
72414;BME280;60995;52.154;4.498;2023-04-15T11:13:46;101561.72;;;20.06;34.21
72414;BME280;60995;52.154;4.498;2023-04-15T11:16:04;101555.34;;;21.20;32.56
72414;BME280;60995;52.154;4.498;2023-04-15T11:18:25;101567.72;;;21.54;32.04
72414;BME280;60995;52.154;4.498;2023-04-15T11:20:51;101571.31;;;20.79;33.57
72414;BME280;60995;52.154;4.498;2023-04-15T11:23:13;101574.44;;;20.76;34.13
72414;BME280;60995;52.154;4.498;2023-04-15T11:25:32;101564.69;;;20.89;33.66
72414;BME280;60995;52.154;4.498;2023-04-15T11:27:49;101579.56;;;19.87;34.35
72414;BME280;60995;52.154;4.498;2023-04-15T11:30:24;101578.25;;;20.06;33.17
72414;BME280;60995;52.154;4.498;2023-04-15T11:32:41;101584.94;;;20.96;31.45
72414;BME280;60995;52.154;4.498;2023-04-15T11:34:58;101581.97;;;20.97;31.18
72414;BME280;60995;52.154;4.498;2023-04-15T11:37:15;101587.19;;;20.54;32.61
72414;BME280;60995;52.154;4.498;2023-04-15T11:39:31;101590.31;;;20.51;33.47
72414;BME280;60995;52.154;4.498;2023-04-15T11:41:47;101584.50;;;20.46;31.91
72414;BME280;60995;52.154;4.498;2023-04-15T11:44:15;101597.78;;;21.04;31.43
72414;BME280;60995;52.154;4.498;2023-04-15T11:46:32;101610.59;;;20.12;34.41
72414;BME280;60995;52.154;4.498;2023-04-15T11:48:49;101613.50;;;19.87;35.15
72414;BME280;60995;52.154;4.498;2023-04-15T11:51:06;101606.53;;;19.99;34.91
72414;BME280;60995;52.154;4.498;2023-04-15T11:53:24;101611.03;;;19.53;35.70
72414;BME280;60995;52.154;4.498;2023-04-15T11:55:51;101620.78;;;18.99;37.43
72414;BME280;60995;52.154;4.498;2023-04-15T11:58:09;101617.16;;;18.24;38.68
72414;BME280;60995;52.154;4.498;2023-04-15T12:00:34;101618.38;;;17.79;41.55
72414;BME280;60995;52.154;4.498;2023-04-15T12:03:20;101623.97;;;17.95;41.64
72414;BME280;60995;52.154;4.498;2023-04-15T12:06:16;101623.75;;;17.46;41.94
72414;BME280;60995;52.154;4.498;2023-04-15T12:09:06;101626.06;;;16.88;42.93